Time,TemperatureF,DewpointF,PressureIn,WindDirection,WindDirectionDegrees,WindSpeedMPH,WindSpeedGustMPH,Humidity,HourlyPrecipIn,Conditions,Clouds,dailyrainin,SolarRadiationWatts/m^2,SoftwareType,DateUTC
2013-09-19 00:10:00,58.6,50.0,30.20,WNW,288,0.0,4.0,74,0.00,,,0.00,0,weatherlink.com 1.10,2013-09-19 04:10:00,
2013-09-19 00:25:00,58.4,50.0,30.20,WSW,255,0.0,3.0,74,0.00,,,0.00,0,weatherlink.com 1.10,2013-09-19 04:25:00,
2013-09-19 00:40:00,57.9,50.0,30.20,West,263,0.0,2.0,76,0.00,,,0.00,0,weatherlink.com 1.10,2013-09-19 04:40:00,
2013-09-19 00:55:00,57.5,50.0,30.20,WNW,300,1.0,3.0,76,0.00,,,0.00,0,weatherlink.com 1.10,2013-09-19 04:55:00,
2013-09-19 01:10:00,57.3,50.0,30.20,WSW,240,1.0,4.0,77,0.00,,,0.00,0,weatherlink.com 1.10,2013-09-19 05:10:00,
2013-09-19 01:25:00,56.6,50.0,30.19,SSW,213,0.0,3.0,79,0.00,,,0.00,0,weatherlink.com 1.10,2013-09-19 05:25:00,
2013-09-19 01:40:00,56.0,50.0,30.19,WSW,252,0.0,2.0,80,0.00,,,0.00,0,weatherlink.com 1.10,2013-09-19 05:40:00,
2013-09-19 01:55:00,55.9,50.0,30.19,WNW,289,0.0,2.0,80,0.00,,,0.00,0,weatherlink.com 1.10,2013-09-19 05:55:00,
2013-09-19 02:10:00,55.6,50.0,30.19,SW,215,1.0,3.0,80,0.00,,,0.00,0,weatherlink.com 1.10,2013-09-19 06:10:00,
2013-09-19 02:25:00,55.1,49.0,30.18,SSW,208,0.0,2.0,81,0.00,,,0.00,0,weatherlink.com 1.10,2013-09-19 06:25:00,
2013-09-19 02:40:00,54.8,49.0,30.18,WSW,246,0.0,3.0,82,0.00,,,0.00,0,weatherlink.com 1.10,2013-09-19 06:40:00,
2013-09-19 02:55:00,54.7,49.0,30.18,West,276,1.0,3.0,82,0.00,,,0.00,0,weatherlink.com 1.10,2013-09-19 06:55:00,
2013-09-19 03:10:00,54.4,49.0,30.18,WNW,284,0.0,4.0,82,0.00,,,0.00,0,weatherlink.com 1.10,2013-09-19 07:10:00,
2013-09-19 03:25:00,53.9,49.0,30.18,WNW,284,0.0,1.0,83,0.00,,,0.00,0,weatherlink.com 1.10,2013-09-19 07:25:00,
2013-09-19 03:40:00,53.3,49.0,30.18,WNW,284,0.0,1.0,84,0.00,,,0.00,0,weatherlink.com 1.10,2013-09-19 07:40:00,
2013-09-19 03:55:00,53.2,49.0,30.17,West,275,2.0,4.0,85,0.00,,,0.00,0,weatherlink.com 1.10,2013-09-19 07:55:00,
2013-09-19 04:10:00,53.3,49.0,30.17,West,276,2.0,4.0,84,0.00,,,0.00,0,weatherlink.com 1.10,2013-09-19 08:10:00,
2013-09-19 04:25:00,52.8,48.0,30.17,West,275,1.0,3.0,85,0.00,,,0.00,0,weatherlink.com 1.10,2013-09-19 08:25:00,
2013-09-19 04:40:00,52.5,48.0,30.18,West,269,1.0,3.0,85,0.00,,,0.00,0,weatherlink.com 1.10,2013-09-19 08:40:00,
2013-09-19 04:55:00,52.4,48.0,30.17,West,269,0.0,3.0,86,0.00,,,0.00,0,weatherlink.com 1.10,2013-09-19 08:55:00,
2013-09-19 05:10:00,52.1,48.0,30.17,West,269,0.0,2.0,87,0.00,,,0.00,0,weatherlink.com 1.10,2013-09-19 09:10:00,
2013-09-19 05:25:00,51.7,48.0,30.17,West,269,0.0,2.0,87,0.00,,,0.00,0,weatherlink.com 1.10,2013-09-19 09:25:00,
2013-09-19 05:40:00,51.3,48.0,30.18,West,269,0.0,1.0,88,0.00,,,0.00,0,weatherlink.com 1.10,2013-09-19 09:40:00,
2013-09-19 05:55:00,51.0,48.0,30.18,West,269,0.0,1.0,88,0.00,,,0.00,0,weatherlink.com 1.10,2013-09-19 09:55:00,
2013-09-19 06:10:00,50.8,48.0,30.18,West,269,1.0,1.0,89,0.00,,,0.00,0,weatherlink.com 1.10,2013-09-19 10:10:00,
2013-09-19 06:25:00,50.9,48.0,30.18,West,269,2.0,2.0,88,0.00,,,0.00,0,weatherlink.com 1.10,2013-09-19 10:25:00,
2013-09-19 06:40:00,51.2,48.0,30.19,West,269,0.0,2.0,88,0.00,,,0.00,11,weatherlink.com 1.10,2013-09-19 10:40:00,
2013-09-19 06:55:00,51.8,48.0,30.19,West,259,1.0,3.0,87,0.00,,,0.00,32,weatherlink.com 1.10,2013-09-19 10:55:00,
2013-09-19 07:10:00,52.9,49.0,30.19,West,269,2.0,4.0,85,0.00,,,0.00,72,weatherlink.com 1.10,2013-09-19 11:10:00,
2013-09-19 07:26:00,53.9,49.0,30.19,West,267,0.0,4.0,83,0.00,,,0.00,116,weatherlink.com 1.10,2013-09-19 11:26:00,
2013-09-19 07:41:00,55.1,49.0,30.19,West,271,2.0,3.0,81,0.00,,,0.00,165,weatherlink.com 1.10,2013-09-19 11:41:00,
2013-09-19 07:56:00,56.2,50.0,30.18,West,273,4.0,4.0,79,0.00,,,0.00,225,weatherlink.com 1.10,2013-09-19 11:56:00,
2013-09-19 08:11:00,57.3,51.0,30.18,West,272,1.0,3.0,78,0.00,,,0.00,269,weatherlink.com 1.10,2013-09-19 12:11:00,
2013-09-19 08:26:00,58.6,51.0,30.19,West,276,1.0,2.0,76,0.00,,,0.00,315,weatherlink.com 1.10,2013-09-19 12:26:00,
2013-09-19 08:41:00,60.1,51.0,30.18,West,274,0.0,2.0,72,0.00,,,0.00,362,weatherlink.com 1.10,2013-09-19 12:41:00,
2013-09-19 08:56:00,62.0,52.0,30.19,West,273,1.0,2.0,70,0.00,,,0.00,406,weatherlink.com 1.10,2013-09-19 12:56:00,
2013-09-19 09:26:00,64.9,52.0,30.18,NNW,344,2.0,4.0,63,0.00,,,0.00,487,weatherlink.com 1.10,2013-09-19 13:26:00,
2013-09-19 09:41:00,66.5,52.0,30.18,North,355,2.0,5.0,60,0.00,,,0.00,527,weatherlink.com 1.10,2013-09-19 13:41:00,
2013-09-19 09:56:00,67.7,51.0,30.19,North,10,1.0,6.0,56,0.00,,,0.00,564,weatherlink.com 1.10,2013-09-19 13:56:00,
2013-09-19 10:11:00,67.9,51.0,30.18,NNE,21,6.0,7.0,56,0.00,,,0.00,596,weatherlink.com 1.10,2013-09-19 14:11:00,
2013-09-19 10:26:00,68.6,52.0,30.18,NE,46,5.0,6.0,55,0.00,,,0.00,629,weatherlink.com 1.10,2013-09-19 14:26:00,
2013-09-19 10:42:00,69.4,52.0,30.18,NNW,333,2.0,7.0,54,0.00,,,0.00,654,weatherlink.com 1.10,2013-09-19 14:42:00,
2013-09-19 10:57:00,70.2,52.0,30.17,West,280,0.0,5.0,52,0.00,,,0.00,680,weatherlink.com 1.10,2013-09-19 14:57:00,
2013-09-19 11:12:00,71.2,53.0,30.17,NE,36,1.0,5.0,53,0.00,,,0.00,703,weatherlink.com 1.10,2013-09-19 15:12:00,
2013-09-19 11:27:00,72.6,53.0,30.17,NE,48,2.0,4.0,51,0.00,,,0.00,719,weatherlink.com 1.10,2013-09-19 15:27:00,
2013-09-19 11:42:00,73.4,54.0,30.16,South,183,1.0,5.0,50,0.00,,,0.00,735,weatherlink.com 1.10,2013-09-19 15:42:00,
2013-09-19 11:57:00,74.5,53.0,30.16,North,11,0.0,5.0,48,0.00,,,0.00,744,weatherlink.com 1.10,2013-09-19 15:57:00,
2013-09-19 12:12:00,74.8,54.0,30.16,East,83,2.0,5.0,48,0.00,,,0.00,752,weatherlink.com 1.10,2013-09-19 16:12:00,
2013-09-19 12:27:00,74.7,52.0,30.16,NE,42,3.0,6.0,46,0.00,,,0.00,758,weatherlink.com 1.10,2013-09-19 16:27:00,
2013-09-19 12:57:00,76.0,53.0,30.15,North,355,4.0,6.0,45,0.00,,,0.00,759,weatherlink.com 1.10,2013-09-19 16:57:00,
2013-09-19 13:12:00,76.4,54.0,30.15,SSE,159,3.0,5.0,46,0.00,,,0.00,747,weatherlink.com 1.10,2013-09-19 17:12:00,
2013-09-19 13:27:00,76.7,52.0,30.15,WNW,283,2.0,8.0,43,0.00,,,0.00,742,weatherlink.com 1.10,2013-09-19 17:27:00,
2013-09-19 13:42:00,77.4,53.0,30.14,NNW,334,3.0,5.0,43,0.00,,,0.00,731,weatherlink.com 1.10,2013-09-19 17:42:00,
2013-09-19 13:57:00,77.9,50.0,30.13,NW,315,5.0,7.0,38,0.00,,,0.00,715,weatherlink.com 1.10,2013-09-19 17:57:00,
2013-09-19 14:12:00,77.8,49.0,30.12,WNW,302,2.0,4.0,37,0.00,,,0.00,691,weatherlink.com 1.10,2013-09-19 18:12:00,
2013-09-19 14:27:00,78.7,50.0,30.12,NE,36,2.0,6.0,36,0.00,,,0.00,671,weatherlink.com 1.10,2013-09-19 18:27:00,
2013-09-19 14:42:00,77.6,53.0,30.12,SE,126,3.0,8.0,43,0.00,,,0.00,636,weatherlink.com 1.10,2013-09-19 18:42:00,
2013-09-19 14:57:00,76.6,54.0,30.11,East,99,3.0,7.0,45,0.00,,,0.00,601,weatherlink.com 1.10,2013-09-19 18:57:00,
2013-09-19 15:12:00,77.0,53.0,30.11,ENE,75,2.0,6.0,44,0.00,,,0.00,577,weatherlink.com 1.10,2013-09-19 19:12:00,
2013-09-19 15:27:00,78.0,53.0,30.11,SE,144,5.0,6.0,42,0.00,,,0.00,538,weatherlink.com 1.10,2013-09-19 19:27:00,
2013-09-19 15:42:00,78.6,54.0,30.10,East,81,2.0,5.0,43,0.00,,,0.00,504,weatherlink.com 1.10,2013-09-19 19:42:00,
2013-09-19 15:57:00,78.1,54.0,30.09,ENE,59,4.0,7.0,44,0.00,,,0.00,468,weatherlink.com 1.10,2013-09-19 19:57:00,
2013-09-19 16:12:00,78.7,54.0,30.09,SSE,151,2.0,5.0,43,0.00,,,0.00,427,weatherlink.com 1.10,2013-09-19 20:12:00,
2013-09-19 16:27:00,80.2,53.0,30.09,NW,304,3.0,3.0,39,0.00,,,0.00,385,weatherlink.com 1.10,2013-09-19 20:27:00,
2013-09-19 16:42:00,80.0,54.0,30.09,ESE,121,1.0,6.0,41,0.00,,,0.00,343,weatherlink.com 1.10,2013-09-19 20:42:00,
2013-09-19 16:57:00,79.4,55.0,30.10,East,88,3.0,6.0,43,0.00,,,0.00,295,weatherlink.com 1.10,2013-09-19 20:57:00,
2013-09-19 17:12:00,77.0,55.0,30.09,ESE,116,2.0,8.0,47,0.00,,,0.00,246,weatherlink.com 1.10,2013-09-19 21:12:00,
2013-09-19 17:28:00,75.7,55.0,30.09,ESE,112,2.0,8.0,49,0.00,,,0.00,192,weatherlink.com 1.10,2013-09-19 21:28:00,
2013-09-19 17:43:00,73.5,54.0,30.09,ESE,121,4.0,7.0,51,0.00,,,0.00,134,weatherlink.com 1.10,2013-09-19 21:43:00,
2013-09-19 17:58:00,72.5,54.0,30.09,ESE,118,3.0,7.0,52,0.00,,,0.00,79,weatherlink.com 1.10,2013-09-19 21:58:00,
2013-09-19 18:13:00,71.2,54.0,30.09,ESE,115,1.0,8.0,55,0.00,,,0.00,40,weatherlink.com 1.10,2013-09-19 22:13:00,
2013-09-19 18:28:00,70.4,54.0,30.10,East,101,2.0,5.0,57,0.00,,,0.00,14,weatherlink.com 1.10,2013-09-19 22:28:00,
2013-09-19 18:43:00,69.2,54.0,30.10,ESE,117,3.0,5.0,58,0.00,,,0.00,7,weatherlink.com 1.10,2013-09-19 22:43:00,
2013-09-19 18:58:00,68.4,54.0,30.10,East,96,3.0,3.0,60,0.00,,,0.00,0,weatherlink.com 1.10,2013-09-19 22:58:00,
2013-09-19 19:13:00,68.0,54.0,30.10,East,93,1.0,2.0,61,0.00,,,0.00,0,weatherlink.com 1.10,2013-09-19 23:13:00,
2013-09-19 19:28:00,67.6,54.0,30.11,East,93,0.0,1.0,62,0.00,,,0.00,0,weatherlink.com 1.10,2013-09-19 23:28:00,
2013-09-19 19:43:00,66.9,54.0,30.11,East,93,0.0,0.0,64,0.00,,,0.00,0,weatherlink.com 1.10,2013-09-19 23:43:00,
2013-09-19 19:58:00,65.9,54.0,30.11,East,93,0.0,0.0,66,0.00,,,0.00,0,weatherlink.com 1.10,2013-09-19 23:58:00,
2013-09-19 20:28:00,65.1,55.0,30.11,East,93,0.0,0.0,69,0.00,,,0.00,0,weatherlink.com 1.10,2013-09-20 00:28:00,
2013-09-19 20:43:00,64.6,55.0,30.12,East,93,0.0,1.0,70,0.00,,,0.00,0,weatherlink.com 1.10,2013-09-20 00:43:00,
2013-09-19 20:58:00,64.2,55.0,30.12,East,93,1.0,1.0,71,0.00,,,0.00,0,weatherlink.com 1.10,2013-09-20 00:58:00,
2013-09-19 21:13:00,63.6,55.0,30.12,East,93,0.0,1.0,74,0.00,,,0.00,0,weatherlink.com 1.10,2013-09-20 01:13:00,
2013-09-19 21:28:00,63.1,55.0,30.12,East,93,0.0,1.0,75,0.00,,,0.00,0,weatherlink.com 1.10,2013-09-20 01:28:00,
2013-09-19 21:43:00,62.4,55.0,30.12,East,93,0.0,0.0,77,0.00,,,0.00,0,weatherlink.com 1.10,2013-09-20 01:43:00,
2013-09-19 21:58:00,62.0,55.0,30.12,East,93,0.0,0.0,78,0.00,,,0.00,0,weatherlink.com 1.10,2013-09-20 01:58:00,
2013-09-19 22:13:00,61.4,55.0,30.12,East,93,0.0,0.0,80,0.00,,,0.00,0,weatherlink.com 1.10,2013-09-20 02:13:00,
2013-09-19 22:28:00,61.2,56.0,30.12,East,93,0.0,1.0,82,0.00,,,0.00,0,weatherlink.com 1.10,2013-09-20 02:28:00,
2013-09-19 22:43:00,62.0,56.0,30.12,West,267,0.0,2.0,80,0.00,,,0.00,0,weatherlink.com 1.10,2013-09-20 02:43:00,
2013-09-19 22:58:00,62.3,55.0,30.12,West,267,0.0,2.0,78,0.00,,,0.00,0,weatherlink.com 1.10,2013-09-20 02:58:00,
2013-09-19 23:13:00,62.1,55.0,30.12,West,273,0.0,2.0,78,0.00,,,0.00,0,weatherlink.com 1.10,2013-09-20 03:13:00,
2013-09-19 23:28:00,61.7,55.0,30.12,West,271,0.0,2.0,78,0.00,,,0.00,0,weatherlink.com 1.10,2013-09-20 03:28:00,
2013-09-19 23:43:00,61.0,55.0,30.12,West,271,0.0,1.0,80,0.00,,,0.00,0,weatherlink.com 1.10,2013-09-20 03:43:00,
2013-09-19 23:58:00,60.2,55.0,30.11,West,271,0.0,1.0,82,0.00,,,0.00,0,weatherlink.com 1.10,2013-09-20 03:58:00,